createdAt,value
2023-11-08T00:00:24.542Z,16.03
2023-11-08T00:02:53.371Z,17.07
2023-11-08T00:05:22.927Z,14.47
2023-11-08T00:07:51.509Z,15.43
2023-11-08T00:10:21.421Z,12.60
2023-11-08T00:12:49.804Z,13.67
2023-11-08T00:15:18.408Z,18.23
2023-11-08T00:17:46.766Z,23.23
2023-11-08T00:20:14.847Z,26.50
2023-11-08T00:22:44.480Z,24.07
2023-11-08T00:27:40.543Z,25.48
2023-11-08T00:30:09.314Z,22.50
2023-11-08T00:32:38.085Z,22.73
2023-11-08T00:35:06.956Z,20.53
2023-11-08T00:37:34.916Z,22.43
2023-11-08T00:40:03.504Z,20.77
2023-11-08T00:42:32.350Z,26.00
2023-11-08T00:45:01.075Z,23.33
2023-11-08T00:47:29.861Z,22.53
2023-11-08T00:49:58.366Z,30.90
2023-11-08T00:52:27.143Z,21.70
2023-11-08T00:54:55.309Z,18.13
2023-11-08T00:57:24.649Z,18.27
2023-11-08T00:59:52.805Z,16.93
2023-11-08T01:02:21.348Z,16.93
2023-11-08T01:04:50.182Z,13.93
2023-11-08T01:07:18.446Z,14.27
2023-11-08T01:09:47.165Z,13.93
2023-11-08T01:12:16.051Z,13.37
2023-11-08T01:14:45.424Z,13.27
2023-11-08T01:17:14.744Z,13.63
2023-11-08T01:19:42.908Z,14.20
2023-11-08T01:22:11.793Z,15.67
2023-11-08T01:24:42.713Z,15.43
2023-11-08T01:27:11.454Z,15.87
2023-11-08T01:29:40.503Z,17.43
2023-11-08T01:32:09.399Z,19.13
2023-11-08T01:34:38.673Z,20.80
2023-11-08T01:37:07.532Z,19.83
2023-11-08T01:39:36.912Z,19.97
2023-11-08T01:44:32.317Z,28.15
2023-11-08T01:47:00.485Z,20.93
2023-11-08T01:49:29.624Z,17.90
2023-11-08T01:52:00.432Z,19.37
2023-11-08T01:54:29.710Z,17.93
2023-11-08T01:56:58.813Z,21.37
2023-11-08T01:59:27.292Z,20.83
2023-11-08T02:01:57.543Z,25.67
2023-11-08T02:04:27.293Z,23.57
2023-11-08T02:06:56.859Z,22.70
2023-11-08T02:09:25.801Z,25.37
2023-11-08T02:11:55.243Z,24.73
2023-11-08T02:14:24.031Z,45.10
2023-11-08T02:16:52.812Z,32.47
2023-11-08T02:19:20.890Z,44.63
2023-11-08T02:21:49.618Z,38.33
2023-11-08T02:24:22.552Z,24.50
2023-11-08T02:26:51.865Z,26.10
2023-11-08T02:29:21.546Z,32.37
2023-11-08T02:31:52.327Z,19.87
2023-11-08T02:34:21.573Z,27.40
2023-11-08T02:36:50.788Z,28.63
2023-11-08T02:39:20.391Z,23.10
2023-11-08T02:41:51.579Z,15.97
2023-11-08T02:44:20.652Z,21.90
2023-11-08T02:46:49.651Z,20.57
2023-11-08T02:49:17.786Z,19.23
2023-11-08T02:51:46.677Z,18.53
2023-11-08T02:54:15.300Z,22.83
2023-11-08T02:56:43.779Z,21.93
2023-11-08T02:59:12.671Z,31.63
2023-11-08T03:01:41.365Z,18.50
2023-11-08T03:04:10.279Z,18.20
2023-11-08T03:06:39.143Z,19.30
2023-11-08T03:09:08.537Z,18.87
2023-11-08T03:11:37.569Z,17.63
2023-11-08T03:14:07.662Z,17.97
2023-11-08T03:16:36.761Z,15.30
2023-11-08T03:19:05.142Z,13.87
2023-11-08T03:21:33.368Z,15.07
2023-11-08T03:24:03.830Z,16.30
2023-11-08T03:26:34.746Z,18.30
2023-11-08T03:29:04.090Z,16.27
2023-11-08T03:31:35.301Z,17.73
2023-11-08T03:34:05.953Z,14.77
2023-11-08T03:36:34.955Z,13.60
2023-11-08T03:39:05.486Z,14.20
2023-11-08T03:41:35.283Z,13.23
2023-11-08T03:44:05.568Z,13.73
2023-11-08T03:46:34.193Z,11.17
2023-11-08T03:49:02.370Z,12.10
2023-11-08T03:51:31.310Z,11.53
2023-11-08T03:53:59.673Z,11.33
2023-11-08T03:56:28.886Z,10.20
2023-11-08T03:58:57.738Z,11.10
2023-11-08T04:01:26.584Z,11.33
2023-11-08T04:03:54.983Z,11.17
2023-11-08T04:06:24.257Z,10.13
2023-11-08T04:08:53.516Z,10.90
2023-11-08T04:11:22.113Z,10.60
2023-11-08T04:13:51.494Z,12.17
2023-11-08T04:16:20.074Z,13.47
2023-11-08T04:18:48.395Z,14.97
2023-11-08T04:21:17.373Z,17.67
2023-11-08T04:23:45.924Z,12.63
2023-11-08T04:26:14.000Z,12.57
2023-11-08T04:28:42.183Z,18.23
2023-11-08T04:31:11.070Z,18.57
2023-11-08T04:33:40.186Z,13.80
2023-11-08T04:36:10.725Z,32.30
2023-11-08T04:38:39.576Z,12.43
2023-11-08T04:41:09.703Z,11.07
2023-11-08T04:43:37.969Z,8.97
2023-11-08T04:46:06.151Z,9.40
2023-11-08T04:48:35.103Z,10.83
2023-11-08T04:51:03.424Z,10.43
2023-11-08T04:53:32.310Z,10.63
2023-11-08T04:56:01.108Z,29.90
2023-11-08T04:58:29.277Z,17.33
2023-11-08T05:00:58.121Z,17.10
2023-11-08T05:03:27.586Z,13.83
2023-11-08T05:05:55.890Z,11.77
2023-11-08T05:08:25.660Z,14.33
2023-11-08T05:13:21.333Z,12.13
2023-11-08T05:15:50.338Z,11.87
2023-11-08T05:18:19.053Z,10.83
2023-11-08T05:20:48.073Z,13.10
2023-11-08T05:23:16.776Z,11.87
2023-11-08T05:25:45.547Z,13.53
2023-11-08T05:28:13.522Z,14.27
2023-11-08T05:30:43.544Z,14.60
2023-11-08T05:33:13.108Z,15.07
2023-11-08T05:35:42.158Z,15.40
2023-11-08T05:38:11.227Z,18.20
2023-11-08T05:40:39.803Z,17.47
2023-11-08T05:43:08.608Z,15.37
2023-11-08T05:45:36.818Z,17.50
2023-11-08T05:48:05.018Z,14.13
2023-11-08T05:50:33.355Z,15.57
2023-11-08T05:53:01.528Z,16.60
2023-11-08T05:55:30.702Z,16.27
2023-11-08T05:57:58.823Z,14.70
2023-11-08T07:31:12.485Z,30.00
2023-11-08T07:33:41.166Z,38.07
2023-11-08T07:36:09.589Z,46.37
2023-11-08T07:38:38.282Z,29.63
2023-11-08T07:41:06.646Z,28.20
2023-11-08T07:43:35.460Z,37.43
2023-11-08T07:46:04.244Z,30.23
2023-11-08T07:48:32.571Z,32.93
2023-11-08T07:51:02.021Z,23.73
2023-11-08T07:55:59.848Z,40.15
2023-11-08T07:58:29.207Z,21.37
2023-11-08T08:00:58.028Z,19.73
2023-11-08T08:03:26.797Z,20.20
2023-11-08T08:05:55.775Z,24.57
2023-11-08T08:08:25.287Z,20.40
2023-11-08T08:10:55.607Z,18.90
2023-11-08T08:13:31.335Z,18.67
2023-11-08T08:15:54.954Z,28.10
2023-11-08T08:18:23.824Z,25.07
2023-11-08T08:20:52.828Z,42.47
2023-11-08T08:23:21.707Z,21.17
2023-11-08T08:25:50.081Z,17.40
2023-11-08T08:28:18.645Z,15.47
2023-11-08T08:30:47.275Z,19.80
2023-11-08T08:33:16.758Z,16.87
2023-11-08T08:38:12.286Z,11.68
2023-11-08T08:40:41.998Z,10.13
2023-11-08T08:43:10.796Z,10.23
2023-11-08T08:45:39.353Z,12.37
2023-11-08T08:48:08.184Z,11.70
2023-11-08T08:50:38.594Z,13.83
2023-11-08T08:53:07.480Z,17.50
2023-11-08T08:55:39.246Z,16.00
2023-11-08T08:58:07.412Z,14.93
2023-11-08T09:00:36.932Z,16.00
2023-11-08T09:05:34.952Z,13.85
2023-11-08T09:08:04.306Z,12.20
2023-11-08T09:10:33.300Z,12.77
2023-11-08T09:13:02.147Z,10.53
2023-11-08T09:15:32.731Z,10.83
2023-11-08T09:18:01.399Z,14.17
2023-11-08T09:20:29.577Z,13.97
2023-11-08T09:22:57.772Z,12.73
2023-11-08T09:25:26.334Z,11.67
2023-11-08T09:27:54.935Z,13.23
2023-11-08T09:30:23.602Z,10.30
2023-11-08T09:32:52.225Z,11.27
2023-11-08T09:35:22.136Z,11.23
2023-11-08T09:37:50.896Z,10.80
2023-11-08T09:40:19.561Z,11.57
2023-11-08T09:42:48.187Z,10.83
2023-11-08T09:45:19.094Z,14.00
2023-11-08T09:47:49.266Z,14.20
2023-11-08T09:50:18.246Z,11.87
2023-11-08T09:52:47.435Z,10.93
2023-11-08T09:55:17.496Z,10.50
2023-11-08T09:57:46.736Z,9.30
2023-11-08T10:00:17.476Z,10.57
2023-11-08T10:02:46.704Z,10.77
2023-11-08T10:05:15.777Z,10.77
2023-11-08T10:07:44.865Z,11.20
2023-11-08T10:10:13.561Z,11.43
2023-11-08T10:12:42.326Z,10.20
2023-11-08T10:15:13.281Z,10.87
2023-11-08T10:19:31.013Z,10.57
2023-11-08T10:20:14.933Z,11.83
2023-11-08T10:22:45.583Z,10.20
2023-11-08T10:25:14.550Z,9.67
2023-11-08T10:27:43.791Z,9.47
2023-11-08T10:30:17.818Z,9.50
2023-11-08T10:32:46.693Z,8.77
2023-11-08T10:35:16.883Z,7.80
2023-11-08T10:37:45.880Z,7.90
2023-11-08T10:40:16.618Z,7.20
2023-11-08T10:42:53.029Z,5.60
2023-11-08T10:45:22.566Z,5.00
2023-11-08T10:47:51.570Z,4.53
2023-11-08T10:50:22.134Z,3.53
2023-11-08T10:52:50.912Z,3.23
2023-11-08T10:55:19.392Z,3.27
2023-11-08T10:57:52.132Z,3.87
2023-11-08T11:00:22.677Z,3.67
2023-11-08T11:02:52.927Z,3.10
2023-11-08T11:05:25.537Z,3.03
2023-11-08T11:07:54.569Z,3.23
2023-11-08T11:10:23.598Z,3.00
2023-11-08T11:12:55.344Z,2.87
2023-11-08T11:15:24.940Z,2.97
2023-11-08T11:17:55.220Z,1.83
2023-11-08T11:20:25.720Z,1.43
2023-11-08T11:22:54.504Z,1.40
2023-11-08T11:25:41.303Z,1.63
2023-11-08T11:28:09.756Z,2.27
2023-11-08T11:30:37.921Z,2.47
2023-11-08T11:33:06.862Z,1.93
2023-11-08T11:35:37.757Z,1.97
2023-11-08T11:38:18.591Z,1.97
2023-11-08T11:40:50.205Z,1.90
2023-11-08T11:43:37.332Z,2.37
2023-11-08T11:46:06.034Z,1.80
2023-11-08T11:48:34.995Z,1.97
2023-11-08T11:51:03.951Z,1.87
2023-11-08T11:53:33.810Z,1.53
2023-11-08T11:56:09.685Z,1.60
2023-11-08T11:58:38.464Z,1.70
2023-11-08T12:01:07.994Z,1.47
2023-11-08T12:03:38.628Z,1.73
2023-11-08T12:06:07.293Z,1.87
2023-11-08T12:08:35.277Z,1.40
2023-11-08T12:11:11.638Z,1.33
2023-11-08T12:13:50.241Z,1.77
2023-11-08T12:16:18.832Z,1.23
2023-11-08T12:18:51.418Z,1.33
2023-11-08T12:21:20.837Z,1.03
2023-11-08T12:26:16.324Z,1.20
2023-11-08T12:28:45.794Z,1.27
2023-11-08T12:33:42.483Z,1.52
2023-11-08T12:36:11.606Z,1.83
2023-11-08T12:38:42.523Z,1.63
2023-11-08T12:41:11.341Z,2.00
2023-11-08T12:43:59.303Z,2.27
2023-11-08T12:46:37.023Z,1.67
2023-11-08T12:51:13.853Z,1.22
2023-11-08T12:53:43.989Z,1.63
2023-11-08T12:56:13.192Z,1.63
2023-11-08T12:58:43.160Z,2.23
2023-11-08T13:01:13.518Z,2.10
2023-11-08T13:03:43.520Z,1.67
2023-11-08T13:06:12.340Z,1.70
2023-11-08T13:08:41.167Z,1.57
2023-11-08T13:11:10.309Z,1.87
2023-11-08T13:13:38.483Z,2.33
2023-11-08T13:16:08.232Z,2.20
2023-11-08T13:18:37.366Z,2.40
2023-11-08T13:21:05.662Z,1.97
2023-11-08T13:24:01.366Z,1.70
2023-11-08T13:26:06.489Z,2.23
2023-11-08T13:28:35.436Z,2.67
2023-11-08T13:31:03.409Z,2.13
2023-11-08T13:33:33.509Z,1.97
2023-11-08T13:36:01.863Z,2.23
2023-11-08T13:38:32.485Z,2.20
2023-11-08T13:41:00.966Z,2.80
2023-11-08T13:43:30.201Z,3.00
2023-11-08T13:45:58.688Z,2.80
2023-11-08T13:48:28.444Z,3.43
2023-11-08T13:51:00.583Z,2.43
2023-11-08T13:53:27.947Z,2.37
2023-11-08T13:55:56.495Z,2.33
2023-11-08T13:58:29.742Z,2.60
2023-11-08T14:00:55.087Z,2.57
2023-11-08T14:03:23.660Z,2.40
2023-11-08T14:05:52.299Z,3.00
2023-11-08T14:08:21.050Z,2.40
2023-11-08T14:10:49.597Z,2.80
2023-11-08T14:13:18.594Z,2.40
2023-11-08T14:15:47.535Z,3.03
2023-11-08T14:18:16.001Z,3.73
2023-11-08T14:20:44.457Z,3.10
2023-11-08T14:23:12.473Z,2.77
2023-11-08T14:25:41.317Z,2.30
2023-11-08T14:28:11.280Z,2.50
2023-11-08T14:30:40.013Z,3.90
2023-11-08T14:33:08.805Z,3.73
2023-11-08T14:35:39.031Z,2.97
2023-11-08T14:38:08.385Z,3.17
2023-11-08T14:40:37.802Z,2.77
2023-11-08T14:43:06.489Z,2.80
2023-11-08T14:45:34.396Z,2.23
2023-11-08T14:48:03.006Z,3.43
2023-11-08T14:50:32.003Z,2.50
2023-11-08T14:53:00.609Z,2.13
2023-11-08T14:55:29.457Z,2.67
2023-11-08T14:57:57.847Z,2.00
2023-11-08T15:00:28.787Z,2.13
2023-11-08T15:02:58.219Z,2.33
2023-11-08T15:09:47.731Z,1.87
2023-11-08T15:10:25.938Z,2.13
2023-11-08T15:12:56.976Z,2.53
2023-11-08T15:15:25.339Z,2.43
2023-11-08T15:17:53.558Z,3.77
2023-11-08T15:20:22.560Z,2.97
2023-11-08T15:22:57.411Z,2.70
2023-11-08T15:25:28.213Z,2.33
2023-11-08T15:27:57.102Z,3.17
2023-11-08T15:30:25.837Z,3.33
2023-11-08T15:32:55.682Z,4.30
2023-11-08T15:35:23.781Z,3.67
2023-11-08T15:37:53.003Z,2.77
2023-11-08T15:40:21.503Z,2.90
2023-11-08T15:42:50.819Z,3.53
2023-11-08T15:45:21.681Z,3.27
2023-11-08T15:47:50.731Z,3.63
2023-11-08T15:50:18.897Z,3.00
2023-11-08T15:52:48.208Z,3.50
2023-11-08T15:57:47.643Z,3.10
2023-11-08T16:00:16.830Z,2.57
2023-11-08T16:02:45.348Z,2.33
2023-11-08T16:05:13.977Z,3.87
2023-11-08T16:07:42.510Z,4.63
2023-11-08T16:10:10.785Z,4.50
2023-11-08T16:12:39.908Z,3.57
2023-11-08T16:15:09.310Z,3.97
2023-11-08T16:20:06.094Z,3.90
2023-11-08T16:22:35.117Z,3.60
2023-11-08T16:25:04.433Z,4.90
2023-11-08T16:27:33.140Z,6.03
2023-11-08T16:30:01.189Z,8.37
2023-11-08T16:32:40.747Z,6.47
2023-11-08T16:35:02.270Z,4.43
2023-11-08T16:37:31.714Z,5.70
2023-11-08T16:40:01.659Z,5.53
2023-11-08T16:42:30.519Z,6.47
2023-11-08T16:44:59.217Z,6.47
2023-11-08T16:47:28.036Z,5.03
2023-11-08T16:49:57.010Z,5.57
2023-11-08T16:52:26.104Z,5.20
2023-11-08T16:54:55.901Z,5.60
2023-11-08T16:57:24.296Z,5.53
2023-11-08T16:59:52.983Z,5.70
2023-11-08T17:02:21.748Z,5.67
2023-11-08T17:04:50.131Z,5.43
2023-11-08T17:07:19.123Z,5.13
2023-11-08T17:09:47.128Z,4.83
2023-11-08T17:12:15.585Z,4.73
2023-11-08T17:14:44.474Z,4.70
2023-11-08T17:17:14.822Z,4.60
2023-11-08T17:19:44.009Z,4.50
2023-11-08T17:22:12.821Z,4.37
2023-11-08T17:24:41.719Z,4.87
2023-11-08T17:27:10.779Z,4.77
2023-11-08T17:29:39.451Z,6.07
2023-11-08T17:32:09.308Z,5.93
2023-11-08T17:34:38.274Z,5.80
2023-11-08T17:37:07.115Z,5.73
2023-11-08T17:39:35.938Z,6.50
2023-11-08T17:42:05.243Z,6.63
2023-11-08T17:44:33.617Z,6.10
2023-11-08T17:47:02.413Z,6.87
2023-11-08T17:49:31.085Z,6.93
2023-11-08T17:51:59.599Z,6.77
2023-11-08T17:54:27.845Z,5.60
2023-11-08T17:56:56.938Z,5.93
2023-11-08T17:59:25.761Z,5.67
2023-11-08T18:01:53.715Z,5.87
2023-11-08T18:04:22.248Z,5.37
2023-11-08T18:06:51.196Z,5.57
2023-11-08T18:09:20.153Z,5.70
2023-11-08T18:11:48.336Z,5.03
2023-11-08T18:14:18.370Z,5.83
2023-11-08T18:16:47.066Z,4.97
2023-11-08T18:19:16.102Z,4.27
2023-11-08T18:21:44.569Z,4.87
2023-11-08T18:24:13.431Z,5.47
2023-11-08T18:26:41.464Z,5.10
2023-11-08T18:29:10.443Z,5.57
2023-11-08T18:31:38.947Z,4.90
2023-11-08T18:34:07.592Z,5.20
2023-11-08T18:36:36.435Z,5.90
2023-11-08T18:39:06.665Z,7.43
2023-11-08T18:41:35.253Z,5.83
2023-11-08T18:44:04.313Z,7.40
2023-11-08T18:46:33.886Z,6.17
2023-11-08T18:49:02.831Z,6.60
2023-11-08T18:51:31.532Z,7.03
2023-11-08T18:54:00.259Z,6.30
2023-11-08T18:56:29.111Z,6.40
2023-11-08T18:58:57.693Z,6.13
2023-11-08T19:01:26.493Z,8.20
2023-11-08T19:03:55.019Z,6.77
2023-11-08T19:06:23.762Z,6.47
2023-11-08T19:08:52.040Z,6.23
2023-11-08T19:11:20.204Z,7.33
2023-11-08T19:13:49.000Z,6.93
2023-11-08T19:16:17.722Z,6.70
2023-11-08T19:18:46.013Z,7.67
2023-11-08T19:21:16.516Z,6.97
2023-11-08T19:23:45.070Z,6.93
2023-11-08T19:26:15.405Z,8.10
2023-11-08T19:28:43.675Z,7.27
2023-11-08T19:31:13.208Z,6.33
2023-11-08T19:33:42.918Z,7.00
2023-11-08T19:36:11.678Z,6.20
2023-11-08T19:38:40.046Z,7.63
2023-11-08T19:41:10.749Z,6.97
2023-11-08T19:43:39.278Z,6.47
2023-11-08T19:46:09.612Z,6.63
2023-11-08T19:48:39.330Z,6.83
2023-11-08T19:51:08.095Z,7.27
2023-11-08T19:53:37.197Z,6.80
2023-11-08T19:56:07.125Z,7.33
2023-11-08T19:58:35.402Z,7.00
2023-11-08T20:01:04.087Z,6.77
2023-11-08T20:03:32.683Z,6.93
2023-11-08T20:06:01.661Z,7.70
2023-11-08T20:08:30.435Z,7.33
2023-11-08T20:10:59.120Z,7.33
2023-11-08T20:13:27.999Z,8.23
2023-11-08T20:15:57.229Z,7.57
2023-11-08T20:18:25.947Z,7.80
2023-11-08T20:20:54.345Z,7.83
2023-11-08T20:23:22.561Z,7.57
2023-11-08T20:25:51.214Z,8.47
2023-11-08T20:28:19.334Z,8.00
2023-11-08T20:30:47.791Z,7.87
2023-11-08T20:33:16.266Z,7.37
2023-11-08T20:35:44.961Z,7.70
2023-11-08T20:38:13.639Z,7.20
2023-11-08T20:40:42.106Z,7.27
2023-11-08T20:43:10.918Z,7.37
2023-11-08T20:45:40.913Z,8.57
2023-11-08T20:48:09.643Z,6.93
2023-11-08T20:50:38.117Z,7.60
2023-11-08T20:53:06.665Z,6.80
2023-11-08T20:55:35.852Z,5.90
2023-11-08T20:58:04.589Z,6.63
2023-11-08T21:00:32.936Z,6.70
2023-11-08T21:03:03.365Z,6.10
2023-11-08T21:05:32.402Z,7.40
2023-11-08T21:08:00.932Z,6.27
2023-11-08T21:10:29.442Z,6.13
2023-11-08T21:12:58.013Z,6.43
2023-11-08T21:15:25.982Z,6.27
2023-11-08T21:17:54.719Z,6.40
2023-11-08T21:20:23.153Z,5.67
2023-11-08T21:22:51.712Z,5.43
2023-11-08T21:25:21.092Z,5.87
2023-11-08T21:27:50.501Z,5.33
2023-11-08T21:30:19.238Z,5.10
2023-11-08T21:32:48.393Z,4.53
2023-11-08T21:35:17.610Z,3.97
2023-11-08T21:37:45.807Z,3.87
2023-11-08T21:40:15.060Z,4.27
2023-11-08T21:42:43.790Z,3.93
2023-11-08T21:45:12.687Z,4.30
2023-11-08T21:47:41.508Z,4.67
2023-11-08T21:50:09.972Z,3.90
2023-11-08T21:52:38.651Z,4.17
2023-11-08T21:55:07.604Z,4.00
2023-11-08T21:57:36.324Z,4.10
2023-11-08T22:00:06.699Z,3.57
2023-11-08T22:02:35.535Z,3.37
2023-11-08T22:05:05.383Z,3.77
2023-11-08T22:07:33.517Z,3.87
2023-11-08T22:10:02.394Z,4.03
2023-11-08T22:12:30.357Z,3.53
2023-11-08T22:15:00.756Z,3.70
2023-11-08T22:17:29.467Z,3.73
2023-11-08T22:20:00.155Z,3.13
2023-11-08T22:22:29.026Z,3.07
2023-11-08T22:24:57.716Z,4.07
2023-11-08T22:27:25.582Z,3.23
2023-11-08T22:29:54.358Z,3.40
2023-11-08T22:32:23.443Z,3.60
2023-11-08T22:34:52.018Z,3.57
2023-11-08T22:37:21.288Z,3.87
2023-11-08T22:39:50.863Z,3.60
2023-11-08T22:42:18.764Z,3.17
2023-11-08T22:44:48.925Z,3.53
2023-11-08T22:47:16.807Z,3.57
2023-11-08T22:49:46.199Z,3.40
2023-11-08T22:52:15.038Z,3.00
2023-11-08T22:54:43.776Z,3.57
2023-11-08T22:57:12.559Z,3.13
2023-11-08T22:59:41.652Z,3.07
2023-11-08T23:02:09.734Z,3.40
2023-11-08T23:04:38.382Z,3.63
2023-11-08T23:07:08.294Z,3.10
2023-11-08T23:09:37.133Z,3.37
2023-11-08T23:12:05.797Z,3.40
2023-11-08T23:14:34.600Z,3.63
2023-11-08T23:17:02.507Z,3.33
2023-11-08T23:19:31.418Z,3.67
2023-11-08T23:22:00.200Z,3.17
2023-11-08T23:24:28.505Z,6.13
2023-11-08T23:26:57.324Z,3.50
2023-11-08T23:29:26.836Z,3.20
2023-11-08T23:34:23.098Z,3.30
2023-11-08T23:36:52.098Z,4.10
2023-11-08T23:39:21.153Z,3.63
2023-11-08T23:41:49.942Z,4.13
2023-11-08T23:44:18.035Z,3.73
2023-11-08T23:46:47.120Z,4.03
2023-11-08T23:49:15.823Z,4.03
2023-11-08T23:51:44.386Z,3.93
2023-11-08T23:54:13.380Z,4.43
2023-11-08T23:56:41.460Z,3.33
2023-11-08T23:59:11.677Z,4.23
